Time;durP1;ratioP1;P1;durP2;ratioP2;P2;SDS_P1;SDS_P2;PMS_P1;PMS_P2;Temp;Humidity;BMP_temperature;BMP_pressure;BME280_temperature;BME280_humidity;BME280_pressure;Samples;Min_cycle;Max_cycle;Signal;HPM_P1;HPM_P2
2021/03/28 00:00:10;;;;;;;9.95;3.15;;;;;;;6.71;67.30;97741.69;4923600;28;20188;-71
2021/03/28 00:02:51;;;;;;;10.52;1.65;;;;;;;6.72;67.24;97748.53;4907022;28;20714;-70
2021/03/28 00:05:27;;;;;;;5.30;1.80;;;;;;;6.78;67.04;97745.78;4910121;29;20278;-70
2021/03/28 00:07:56;;;;;;;15.43;2.55;;;;;;;6.67;67.41;97747.81;4908897;28;20758;-71
2021/03/28 00:10:29;;;;;;;9.73;1.90;;;;;;;6.63;67.18;97751.41;4906840;28;20199;-71
2021/03/28 00:13:07;;;;;;;9.85;2.58;;;;;;;6.52;67.43;97749.09;4910375;28;20618;-70
2021/03/28 00:15:39;;;;;;;15.30;2.53;;;;;;;6.43;67.81;97751.09;4927193;28;20523;-71
2021/03/28 00:18:16;;;;;;;6.50;1.83;;;;;;;6.46;68.40;97756.16;4910369;28;20215;-71
2021/03/28 00:20:45;;;;;;;10.77;3.55;;;;;;;6.48;68.02;97757.00;4907617;29;21045;-71
2021/03/28 00:23:21;;;;;;;15.60;2.85;;;;;;;6.46;68.44;97754.44;4909005;28;20560;-71
2021/03/28 00:25:54;;;;;;;13.63;2.67;;;;;;;6.28;68.90;97754.91;4908473;29;20192;-71
2021/03/28 00:28:31;;;;;;;17.45;2.85;;;;;;;6.21;68.89;97747.38;4908328;28;20232;-71
2021/03/28 00:31:23;;;;;;;12.05;2.50;;;;;;;6.19;68.89;97750.00;4898686;29;20800;-70
2021/03/28 00:34:12;;;;;;;6.82;2.58;;;;;;;6.13;69.68;97749.31;4907383;28;20531;-70
2021/03/28 00:36:45;;;;;;;7.00;2.67;;;;;;;6.14;69.75;97756.19;4908559;29;20601;-70
2021/03/28 00:39:29;;;;;;;9.90;2.17;;;;;;;6.11;69.67;97753.69;4908379;28;20687;-70
2021/03/28 00:42:01;;;;;;;7.60;2.00;;;;;;;6.05;70.10;97746.09;4923432;28;20203;-71
2021/03/28 00:44:30;;;;;;;5.50;2.15;;;;;;;6.08;70.42;97746.88;4920543;28;20426;-71
2021/03/28 00:47:00;;;;;;;11.00;1.90;;;;;;;5.92;70.76;97745.56;4909113;28;20636;-70
2021/03/28 00:49:31;;;;;;;8.27;2.17;;;;;;;5.80;71.70;97745.00;4906084;29;20657;-70
2021/03/28 00:52:04;;;;;;;12.23;3.38;;;;;;;5.84;71.70;97752.63;4897822;28;20192;-73
2021/03/28 00:54:40;;;;;;;13.43;2.55;;;;;;;5.84;71.51;97751.81;4898915;29;20782;-72
2021/03/28 00:57:22;;;;;;;6.40;2.47;;;;;;;5.81;71.01;97749.31;4906991;28;20677;-72
2021/03/28 00:59:56;;;;;;;5.53;1.67;;;;;;;5.83;71.16;97750.94;4925336;28;20308;-71
2021/03/28 01:02:28;;;;;;;10.23;2.25;;;;;;;5.79;71.16;97751.91;4907781;28;20739;-73
2021/03/28 01:05:18;;;;;;;16.48;2.17;;;;;;;5.85;70.49;97743.16;4911887;29;20192;-73
2021/03/28 01:07:56;;;;;;;8.57;2.15;;;;;;;5.79;70.85;97743.28;4906824;28;20220;-73
2021/03/28 01:10:58;;;;;;;4.88;2.10;;;;;;;5.85;70.72;97748.31;4909099;29;20547;-73
2021/03/28 01:13:57;;;;;;;4.00;1.45;;;;;;;5.85;70.75;97740.56;4906635;28;20588;-72
2021/03/28 01:17:25;;;;;;;9.80;2.45;;;;;;;5.77;70.49;97734.72;4908493;29;20195;-71
2021/03/28 01:20:30;;;;;;;3.90;1.92;;;;;;;5.81;70.93;97738.97;4908503;29;20591;-72
2021/03/28 01:23:17;;;;;;;3.20;1.67;;;;;;;5.70;71.13;97738.34;4938902;28;20566;-73
2021/03/28 01:26:07;;;;;;;6.55;1.80;;;;;;;5.57;71.86;97736.94;4924762;28;20247;-72
2021/03/28 01:28:44;;;;;;;2.65;1.40;;;;;;;5.58;71.72;97730.88;4898790;28;20228;-73
2021/03/28 01:31:27;;;;;;;6.75;2.83;;;;;;;5.63;71.70;97741.97;4913560;29;20192;-71
2021/03/28 01:33:56;;;;;;;10.48;2.05;;;;;;;5.38;71.89;97720.22;4906855;28;20750;-70
2021/03/28 01:36:29;;;;;;;6.93;2.10;;;;;;;5.38;72.33;97736.53;4908427;29;20668;-70
2021/03/28 01:39:07;;;;;;;3.28;1.40;;;;;;;5.39;72.13;97724.47;4910328;28;20692;-70
2021/03/28 01:41:39;;;;;;;7.32;1.65;;;;;;;5.29;72.75;97735.88;4924737;28;20192;-70
2021/03/28 01:44:15;;;;;;;7.07;1.85;;;;;;;5.26;72.90;97742.00;4925324;28;20231;-70
2021/03/28 01:46:55;;;;;;;14.82;1.58;;;;;;;5.17;72.87;97741.34;4912133;28;20559;-70
2021/03/28 01:49:34;;;;;;;6.28;1.52;;;;;;;5.13;73.10;97747.44;4910116;29;20256;-70
2021/03/28 01:52:15;;;;;;;10.77;2.63;;;;;;;5.03;73.47;97748.53;4912236;28;20196;-69
2021/03/28 01:55:00;;;;;;;8.15;2.08;;;;;;;4.98;73.48;97746.06;4910349;29;20540;-69
2021/03/28 01:57:35;;;;;;;12.57;2.20;;;;;;;4.93;74.28;97752.19;4902885;28;20550;-70
2021/03/28 02:00:28;;;;;;;3.83;1.48;;;;;;;4.97;73.86;97748.66;4911427;29;20184;-70
2021/03/28 02:03:28;;;;;;;18.20;2.40;;;;;;;4.93;73.77;97749.59;4925950;28;20227;-70
2021/03/28 02:06:07;;;;;;;5.75;1.50;;;;;;;4.92;73.88;97745.31;4911868;28;20605;-71
2021/03/28 02:08:49;;;;;;;5.50;1.45;;;;;;;4.97;74.31;97746.94;4912305;28;20762;-70
2021/03/28 02:11:29;;;;;;;13.75;1.67;;;;;;;4.98;74.36;97742.63;4912828;29;20875;-69
2021/03/28 02:14:09;;;;;;;5.50;1.98;;;;;;;5.07;73.86;97747.56;4924418;28;20228;-70
2021/03/28 02:16:53;;;;;;;7.82;1.40;;;;;;;5.06;74.16;97743.31;4911140;29;20603;-69
2021/03/28 02:19:23;;;;;;;5.72;1.52;;;;;;;5.04;73.81;97740.78;4913335;29;20615;-69
2021/03/28 02:21:59;;;;;;;9.10;1.80;;;;;;;4.95;74.13;97745.28;4908868;28;20526;-69
2021/03/28 02:24:42;;;;;;;4.68;1.20;;;;;;;5.05;74.39;97741.59;4910874;28;20289;-70
2021/03/28 02:27:16;;;;;;;6.07;1.80;;;;;;;5.11;73.85;97741.47;4908897;28;20227;-69
2021/03/28 02:29:56;;;;;;;11.65;1.80;;;;;;;5.14;73.60;97746.56;4910338;29;20612;-70
2021/03/28 02:32:47;;;;;;;6.90;1.50;;;;;;;5.17;73.27;97746.50;4909234;28;20609;-71
2021/03/28 02:35:39;;;;;;;7.50;2.13;;;;;;;5.18;73.76;97749.03;4911343;29;20628;-69
2021/03/28 02:38:14;;;;;;;8.15;1.80;;;;;;;5.07;73.78;97739.84;4900979;28;20735;-70
2021/03/28 02:40:45;;;;;;;5.80;2.00;;;;;;;5.03;73.97;97746.78;4909698;29;20701;-69
2021/03/28 02:43:27;;;;;;;6.55;1.45;;;;;;;4.86;74.04;97746.31;4910972;28;20220;-69
2021/03/28 02:46:22;;;;;;;5.78;1.42;;;;;;;4.91;74.03;97751.38;4912056;28;20204;-70
2021/03/28 02:49:07;;;;;;;7.53;1.90;;;;;;;4.97;73.67;97749.53;4912596;28;20231;-69
2021/03/28 02:52:07;;;;;;;8.52;1.42;;;;;;;4.92;74.49;97745.31;4938406;28;20204;-70
2021/03/28 02:54:57;;;;;;;3.63;1.33;;;;;;;4.84;74.49;97742.06;4908378;29;20625;-69
2021/03/28 02:57:47;;;;;;;4.43;1.65;;;;;;;4.83;74.94;97735.22;4914861;28;20231;-70
2021/03/28 03:00:29;;;;;;;11.07;1.70;;;;;;;4.85;75.03;97743.75;4920551;28;20614;-70
2021/03/28 03:03:16;;;;;;;7.47;1.50;;;;;;;4.80;74.69;97745.63;4954397;28;20245;-69
2021/03/28 03:06:03;;;;;;;8.65;1.60;;;;;;;4.97;74.37;97746.09;4966986;28;20544;-70
2021/03/28 03:08:39;;;;;;;5.93;1.80;;;;;;;5.01;74.40;97748.56;4965776;28;20247;-70
2021/03/28 03:11:28;;;;;;;5.95;1.80;;;;;;;4.96;73.86;97739.25;4967045;28;20805;-69
2021/03/28 03:14:24;;;;;;;14.43;1.90;;;;;;;5.04;73.57;97742.50;4966496;28;20229;-70
2021/03/28 03:17:30;;;;;;;4.03;1.58;;;;;;;4.89;73.78;97740.25;4961804;28;20535;-69
2021/03/28 03:20:20;;;;;;;6.20;1.50;;;;;;;4.89;73.96;97747.97;4958167;28;20452;-70
2021/03/28 03:23:15;;;;;;;7.35;1.45;;;;;;;4.85;74.49;97747.19;4967388;28;20229;-70
2021/03/28 03:26:22;;;;;;;9.55;2.05;;;;;;;4.84;74.15;97744.66;4965449;28;20832;-69
2021/03/28 03:29:23;;;;;;;10.80;1.50;;;;;;;4.84;74.22;97753.25;4961804;28;20845;-70
2021/03/28 03:32:07;;;;;;;9.38;2.10;;;;;;;4.85;74.71;97743.75;4955155;28;20194;-70
2021/03/28 03:34:51;;;;;;;8.82;1.65;;;;;;;4.89;74.21;97743.66;4964672;28;20809;-70
2021/03/28 03:38:03;;;;;;;9.77;2.80;;;;;;;4.91;74.40;97743.63;4965379;28;20214;-69
2021/03/28 03:40:34;;;;;;;6.97;1.45;;;;;;;4.88;74.15;97746.28;4965478;28;20541;-70
2021/03/28 03:43:19;;;;;;;7.22;1.65;;;;;;;4.83;73.74;97758.44;4959507;28;20300;-70
2021/03/28 03:45:58;;;;;;;3.92;1.40;;;;;;;4.60;74.29;97752.91;4952548;28;20708;-69
2021/03/28 03:48:36;;;;;;;12.20;1.88;;;;;;;4.55;75.62;97759.88;4953739;28;20226;-71
2021/03/28 03:51:58;;;;;;;6.30;1.60;;;;;;;4.65;75.33;97751.91;4967691;28;20939;-70
2021/03/28 03:54:41;;;;;;;4.72;1.70;;;;;;;4.67;74.66;97762.22;4956847;28;20245;-70
2021/03/28 03:57:39;;;;;;;7.80;1.40;;;;;;;4.69;74.79;97768.16;4967125;28;20284;-71
2021/03/28 04:00:17;;;;;;;10.95;1.80;;;;;;;4.67;74.99;97767.38;4964201;28;20708;-70
2021/03/28 04:02:52;;;;;;;6.95;1.95;;;;;;;4.69;74.75;97766.47;4964861;28;20342;-71
2021/03/28 04:05:45;;;;;;;4.65;1.63;;;;;;;4.63;75.21;97771.72;4963880;28;20712;-72
2021/03/28 04:08:26;;;;;;;6.60;1.63;;;;;;;4.59;74.74;97761.50;4967723;28;20608;-71
2021/03/28 04:11:04;;;;;;;8.25;1.60;;;;;;;4.59;75.24;97764.91;4965636;28;20252;-69
2021/03/28 04:13:52;;;;;;;11.85;1.50;;;;;;;4.70;74.99;97770.72;4956278;28;20255;-69
2021/03/28 04:16:39;;;;;;;7.38;1.60;;;;;;;4.76;74.68;97770.63;4968079;28;20190;-70
2021/03/28 04:19:29;;;;;;;11.70;1.60;;;;;;;4.73;74.61;97777.56;4968387;28;20603;-69
2021/03/28 04:22:37;;;;;;;11.18;2.03;;;;;;;4.70;74.76;97773.31;4964961;28;20258;-70
2021/03/28 04:25:24;;;;;;;9.95;1.42;;;;;;;4.69;75.04;97768.16;4966459;28;20228;-70
2021/03/28 04:28:26;;;;;;;8.90;1.92;;;;;;;4.60;75.19;97761.50;4967093;28;20713;-69
2021/03/28 04:31:20;;;;;;;3.67;1.55;;;;;;;4.66;75.32;97768.25;4953829;28;20649;-70
2021/03/28 04:33:54;;;;;;;4.70;1.70;;;;;;;4.67;74.48;97764.78;4964077;28;20228;-71
2021/03/28 04:36:29;;;;;;;6.68;1.65;;;;;;;4.60;75.09;97763.22;4966788;28;20190;-70
2021/03/28 04:39:19;;;;;;;9.68;1.77;;;;;;;4.51;75.49;97760.81;4965255;28;20213;-69
2021/03/28 04:42:24;;;;;;;7.25;2.00;;;;;;;4.38;75.94;97772.25;4956801;28;20248;-72
2021/03/28 04:45:39;;;;;;;4.28;1.80;;;;;;;4.45;75.44;97771.25;4914462;28;20948;-73
2021/03/28 04:48:34;;;;;;;6.47;1.13;;;;;;;4.51;75.45;97769.38;4965835;28;20256;-70
2021/03/28 04:51:38;;;;;;;8.85;1.70;;;;;;;4.56;75.59;97777.03;4970021;28;20521;-70
2021/03/28 04:54:22;;;;;;;8.68;1.38;;;;;;;4.60;74.84;97770.94;4924791;28;20222;-71
2021/03/28 04:57:00;;;;;;;11.30;1.58;;;;;;;4.61;74.94;97770.06;4920903;28;20530;-72
2021/03/28 05:00:18;;;;;;;10.77;2.00;;;;;;;4.22;75.37;97771.66;4945729;28;20236;-72
2021/03/28 05:03:32;;;;;;;6.40;1.80;;;;;;;4.26;75.67;97777.59;4965082;28;20226;-69
2021/03/28 05:06:14;;;;;;;9.18;1.40;;;;;;;4.33;76.07;97779.19;4964085;28;20562;-72
2021/03/28 05:08:56;;;;;;;16.38;2.58;;;;;;;4.29;76.05;97780.97;4957177;28;20813;-70
2021/03/28 05:12:00;;;;;;;7.30;2.13;;;;;;;4.12;75.47;97777.88;4956181;28;20193;-69
2021/03/28 05:15:00;;;;;;;4.68;1.88;;;;;;;4.04;75.84;97784.03;4946039;28;20222;-70
2021/03/28 05:17:55;;;;;;;5.15;1.70;;;;;;;4.05;76.06;97780.56;4954018;28;20861;-71
2021/03/28 05:20:54;;;;;;;9.45;1.48;;;;;;;4.18;76.63;97780.34;4969108;28;20194;-69
2021/03/28 05:23:54;;;;;;;7.78;1.40;;;;;;;4.26;76.59;97781.06;4970684;28;20288;-71
2021/03/28 05:27:10;;;;;;;4.05;1.40;;;;;;;4.30;76.06;97787.00;4971151;28;20728;-69
2021/03/28 05:30:08;;;;;;;3.28;1.40;;;;;;;4.28;76.43;97786.19;4968660;28;20577;-73
2021/03/28 05:33:10;;;;;;;6.85;1.42;;;;;;;4.25;76.36;97797.38;4971448;28;20222;-73
2021/03/28 05:36:06;;;;;;;6.43;2.17;;;;;;;4.18;76.35;97795.78;4966992;28;20190;-69
2021/03/28 05:39:04;;;;;;;5.90;1.95;;;;;;;4.24;76.39;97798.28;5001990;28;20282;-70
2021/03/28 05:41:59;;;;;;;4.22;1.65;;;;;;;4.21;76.55;97800.06;4960003;28;20697;-70
2021/03/28 05:45:04;;;;;;;8.68;1.70;;;;;;;4.29;76.09;97811.06;4985703;28;20280;-71
2021/03/28 05:48:06;;;;;;;6.53;1.45;;;;;;;4.34;76.74;97810.09;4970896;28;20225;-69
2021/03/28 05:50:50;;;;;;;13.75;1.77;;;;;;;4.44;76.25;97813.38;4957320;28;20578;-69
2021/03/28 05:54:06;;;;;;;4.20;1.42;;;;;;;4.40;76.41;97804.84;4984140;28;20560;-70
2021/03/28 05:57:11;;;;;;;10.98;1.85;;;;;;;4.31;75.83;97809.31;4967453;28;20691;-71
2021/03/28 05:59:59;;;;;;;3.20;1.60;;;;;;;4.25;76.46;97802.53;4965182;28;20233;-71
2021/03/28 06:02:58;;;;;;;10.38;2.20;;;;;;;4.30;76.73;97810.19;4957923;28;20231;-71
2021/03/28 06:06:14;;;;;;;9.60;1.77;;;;;;;4.31;76.67;97796.41;4968391;28;20236;-70
2021/03/28 06:09:17;;;;;;;6.35;1.90;;;;;;;4.40;77.11;97809.13;4967392;28;20615;-71
2021/03/28 06:12:08;;;;;;;11.50;1.40;;;;;;;4.69;76.57;97817.16;4967135;28;20564;-71
2021/03/28 06:14:48;;;;;;;6.90;1.55;;;;;;;5.01;75.44;97825.13;4972118;28;20194;-69
2021/03/28 06:17:21;;;;;;;6.95;1.90;;;;;;;4.95;74.30;97827.81;4962452;28;20650;-71
2021/03/28 06:20:34;;;;;;;4.10;1.90;;;;;;;5.03;73.07;97825.94;4969594;28;20188;-72
2021/03/28 06:23:54;;;;;;;10.20;2.15;;;;;;;5.18;72.15;97830.78;4966026;28;20304;-71
2021/03/28 06:27:06;;;;;;;10.75;2.67;;;;;;;5.19;73.06;97822.16;4984019;28;20573;-71
2021/03/28 06:30:03;;;;;;;6.03;2.08;;;;;;;5.48;73.05;97819.78;4967152;28;20213;-71
2021/03/28 06:33:03;;;;;;;9.25;2.05;;;;;;;5.83;72.58;97812.09;4984040;28;20682;-69
2021/03/28 06:36:02;;;;;;;6.00;2.28;;;;;;;6.17;71.23;97818.13;4966081;28;20193;-70
2021/03/28 06:39:15;;;;;;;11.57;2.10;;;;;;;6.61;70.27;97826.44;5001898;28;20584;-72
2021/03/28 06:42:12;;;;;;;9.05;1.67;;;;;;;7.13;68.56;97821.50;4994876;28;20208;-73
2021/03/28 06:45:11;;;;;;;8.00;2.33;;;;;;;7.47;66.82;97816.19;4985136;28;20221;-71
2021/03/28 06:48:21;;;;;;;7.00;2.30;;;;;;;7.85;66.23;97818.44;4959902;28;20717;-70
2021/03/28 06:50:59;;;;;;;5.95;1.63;;;;;;;8.17;64.15;97816.50;4967864;28;20670;-70
2021/03/28 06:54:04;;;;;;;8.57;2.07;;;;;;;8.83;62.90;97824.59;4968032;28;20284;-73
2021/03/28 06:57:13;;;;;;;7.87;2.10;;;;;;;9.30;60.75;97815.94;4968805;28;20874;-71
2021/03/28 07:00:04;;;;;;;11.40;2.70;;;;;;;9.61;61.29;97817.31;4967427;28;20587;-73
2021/03/28 07:03:04;;;;;;;5.73;2.43;;;;;;;9.88;60.92;97811.03;4944193;28;20576;-72
2021/03/28 07:05:42;;;;;;;7.43;3.13;;;;;;;9.99;61.04;97810.59;4945566;28;20514;-71
2021/03/28 07:08:50;;;;;;;8.67;1.90;;;;;;;10.42;58.54;97815.78;4982542;28;20766;-70
2021/03/28 07:11:36;;;;;;;8.33;1.50;;;;;;;10.33;57.88;97819.59;4967552;28;20908;-71
2021/03/28 07:14:57;;;;;;;5.80;1.80;;;;;;;10.67;57.14;97812.06;4957622;28;20469;-71
2021/03/28 07:17:57;;;;;;;10.87;2.47;;;;;;;10.71;57.87;97816.25;4962205;28;20457;-73
2021/03/28 07:20:38;;;;;;;11.23;2.20;;;;;;;10.59;57.53;97831.53;4968083;28;20461;-72
2021/03/28 07:23:33;;;;;;;7.97;2.47;;;;;;;10.27;58.28;97830.28;4966669;28;20959;-70
2021/03/28 07:26:08;;;;;;;7.17;1.97;;;;;;;10.26;58.59;97833.75;4963083;28;20459;-71
2021/03/28 07:29:14;;;;;;;6.53;2.40;;;;;;;10.43;58.06;97831.34;4980193;28;20460;-71
2021/03/28 07:32:18;;;;;;;11.57;2.40;;;;;;;10.57;58.43;97834.22;4982761;28;20448;-71
2021/03/28 07:35:28;;;;;;;10.43;3.70;;;;;;;11.10;58.62;97811.91;4968191;28;20515;-72
2021/03/28 07:38:35;;;;;;;9.63;3.30;;;;;;;12.03;55.75;97841.47;4964254;28;20473;-71
2021/03/28 07:41:52;;;;;;;9.17;2.57;;;;;;;12.46;54.15;97846.28;4967436;28;20910;-72
2021/03/28 07:44:59;;;;;;;81.07;35.80;;;;;;;12.04;55.34;97847.50;4958651;28;21156;-72
2021/03/28 07:48:14;;;;;;;8.87;3.20;;;;;;;11.48;56.28;97837.06;4957277;28;20488;-70
2021/03/28 07:51:08;;;;;;;8.33;2.97;;;;;;;11.03;58.24;97846.94;4981097;28;20469;-71
2021/03/28 07:54:29;;;;;;;8.33;2.87;;;;;;;10.90;59.15;97856.19;4969118;28;21006;-70
2021/03/28 07:57:16;;;;;;;4.77;2.00;;;;;;;11.03;59.20;97853.91;4956019;28;20497;-72
2021/03/28 07:59:55;;;;;;;9.53;1.83;;;;;;;10.86;58.95;97872.88;4966023;28;20468;-71
2021/03/28 08:02:56;;;;;;;6.90;1.93;;;;;;;10.62;59.12;97871.28;4954908;28;20531;-69
2021/03/28 08:05:50;;;;;;;5.20;2.00;;;;;;;10.49;59.69;97872.75;4966944;28;20853;-71
2021/03/28 08:08:36;;;;;;;7.40;2.13;;;;;;;10.84;58.36;97879.06;4988014;28;20785;-71
2021/03/28 08:11:24;;;;;;;7.30;1.60;;;;;;;10.68;58.18;97876.25;4967607;28;20901;-69
2021/03/28 08:14:21;;;;;;;11.97;1.70;;;;;;;10.39;59.22;97879.22;4965751;28;20453;-73
2021/03/28 08:17:01;;;;;;;7.17;1.67;;;;;;;10.81;58.44;97874.84;4946317;28;20446;-73
2021/03/28 08:20:06;;;;;;;15.80;2.57;;;;;;;11.91;56.02;97882.91;4968388;28;21151;-72
2021/03/28 08:22:51;;;;;;;7.03;2.03;;;;;;;12.67;53.33;97894.81;4956056;28;20924;-72
2021/03/28 08:25:48;;;;;;;6.03;1.83;;;;;;;13.43;52.15;97888.25;4964657;28;20836;-71
2021/03/28 08:28:37;;;;;;;9.60;2.43;;;;;;;13.32;52.00;97888.00;4980285;28;20780;-71
2021/03/28 08:31:17;;;;;;;12.47;1.43;;;;;;;12.99;52.77;97883.66;4966586;28;20447;-74
2021/03/28 08:34:26;;;;;;;6.13;1.50;;;;;;;12.92;52.56;97898.75;4964950;28;20488;-71
2021/03/28 08:37:06;;;;;;;12.50;1.83;;;;;;;13.00;52.41;97885.34;4956367;28;21108;-69
2021/03/28 08:40:08;;;;;;;15.47;1.73;;;;;;;12.69;51.85;97893.00;4959817;28;20449;-72
2021/03/28 08:43:34;;;;;;;8.23;1.60;;;;;;;12.51;51.48;97893.91;4967954;28;20950;-71
2021/03/28 08:46:26;;;;;;;9.63;2.00;;;;;;;11.99;53.24;97886.03;4917925;28;20453;-70
2021/03/28 08:49:10;;;;;;;8.03;1.53;;;;;;;11.96;53.08;97886.16;4923858;28;20485;-71
2021/03/28 08:52:29;;;;;;;8.63;1.63;;;;;;;12.06;53.04;97877.84;4962723;28;20442;-72
2021/03/28 08:55:20;;;;;;;17.93;6.83;;;;;;;11.94;52.58;97878.41;4965877;28;20441;-73
2021/03/28 08:57:59;;;;;;;15.07;2.13;;;;;;;12.09;52.25;97875.06;4965047;28;20992;-70
2021/03/28 09:00:34;;;;;;;2.57;1.33;;;;;;;12.18;53.81;97874.66;4965227;28;20444;-72
2021/03/28 09:03:42;;;;;;;13.60;1.10;;;;;;;12.55;52.12;97877.16;4967776;28;20978;-70
2021/03/28 09:06:15;;;;;;;9.50;1.63;;;;;;;12.89;50.61;97879.78;4967586;28;20825;-72
2021/03/28 09:08:57;;;;;;;5.53;1.40;;;;;;;12.72;50.46;97885.00;4964575;28;21011;-70
2021/03/28 09:11:36;;;;;;;11.57;2.40;;;;;;;13.00;51.89;97870.53;4957307;28;20434;-72
2021/03/28 09:14:14;;;;;;;6.83;1.77;;;;;;;12.87;52.59;97866.81;4965361;28;20475;-71
2021/03/28 09:16:58;;;;;;;10.87;1.50;;;;;;;12.82;49.33;97870.53;4961442;28;20948;-70
2021/03/28 09:19:57;;;;;;;8.60;1.30;;;;;;;13.20;48.82;97864.25;4970590;28;20461;-69
2021/03/28 09:22:34;;;;;;;6.43;1.40;;;;;;;13.40;48.34;97854.44;4965715;28;21008;-70
2021/03/28 09:25:09;;;;;;;8.40;1.30;;;;;;;13.32;48.93;97866.22;4966122;28;20473;-70
2021/03/28 09:27:43;;;;;;;3.27;1.20;;;;;;;13.25;49.53;97875.31;4965771;28;20934;-71
2021/03/28 09:30:31;;;;;;;7.37;1.70;;;;;;;12.86;48.90;97872.09;4964060;28;20436;-68
2021/03/28 09:33:21;;;;;;;6.10;1.63;;;;;;;13.17;48.36;97867.88;4966119;28;20460;-71
2021/03/28 09:36:16;;;;;;;12.03;1.20;;;;;;;13.38;48.84;97863.28;4954291;28;20772;-69
2021/03/28 09:39:01;;;;;;;5.50;1.07;;;;;;;13.40;48.64;97864.03;4963691;28;20473;-72
2021/03/28 09:41:47;;;;;;;4.17;1.03;;;;;;;13.10;47.93;97865.66;4967706;28;20908;-73
2021/03/28 09:44:28;;;;;;;5.83;1.37;;;;;;;13.28;48.07;97855.06;4947247;28;20500;-70
2021/03/28 09:47:20;;;;;;;6.63;1.13;;;;;;;13.43;47.61;97848.22;4949653;28;20830;-71
2021/03/28 09:50:12;;;;;;;8.77;1.90;;;;;;;13.59;48.15;97849.06;4966355;28;20429;-71
2021/03/28 09:53:08;;;;;;;4.57;1.70;;;;;;;13.63;46.92;97840.16;4965994;28;21129;-70
2021/03/28 09:56:16;;;;;;;3.97;1.10;;;;;;;14.25;46.37;97837.53;4964504;28;20532;-70
2021/03/28 09:58:59;;;;;;;8.60;1.73;;;;;;;14.22;46.07;97843.78;4964756;28;20977;-71
2021/03/28 10:01:45;;;;;;;7.87;2.27;;;;;;;14.23;44.96;97848.09;4957072;28;20926;-72
2021/03/28 10:04:34;;;;;;;3.43;1.37;;;;;;;14.38;45.27;97844.59;4973579;28;20527;-70
2021/03/28 10:07:04;;;;;;;8.67;1.60;;;;;;;14.99;45.03;97840.13;4970188;28;20433;-72
2021/03/28 10:09:56;;;;;;;12.23;2.40;;;;;;;15.35;43.16;97831.84;4970129;28;20525;-71
2021/03/28 10:12:34;;;;;;;8.23;1.40;;;;;;;14.62;43.50;97829.25;4969346;28;20997;-71
2021/03/28 10:15:11;;;;;;;10.17;1.90;;;;;;;14.45;43.95;97829.38;4959029;28;20893;-70
2021/03/28 10:17:46;;;;;;;9.10;2.20;;;;;;;14.33;44.59;97827.47;4962993;28;20863;-71
2021/03/28 10:20:29;;;;;;;6.07;1.37;;;;;;;14.43;44.77;97832.09;4968754;28;20452;-71
2021/03/28 10:23:20;;;;;;;2.70;1.53;;;;;;;14.44;45.27;97835.56;4968089;28;20464;-70
2021/03/28 10:26:05;;;;;;;2.83;1.17;;;;;;;15.66;42.89;97826.38;4968873;28;21144;-72
2021/03/28 10:28:52;;;;;;;15.37;6.13;;;;;;;15.82;42.36;97816.59;4982045;28;21123;-70
2021/03/28 10:31:26;;;;;;;9.40;2.13;;;;;;;15.90;42.85;97823.06;4972297;28;20438;-72
2021/03/28 10:34:24;;;;;;;10.73;1.70;;;;;;;16.50;41.82;97820.91;4984961;28;20485;-72
2021/03/28 10:37:04;;;;;;;9.43;1.63;;;;;;;16.35;40.96;97811.38;4968821;28;20697;-72
2021/03/28 10:39:52;;;;;;;6.63;1.80;;;;;;;15.37;42.43;97808.97;5001621;28;20470;-71
2021/03/28 10:42:46;;;;;;;7.20;1.27;;;;;;;15.66;42.31;97806.22;4967608;28;20557;-69
2021/03/28 10:45:31;;;;;;;5.63;1.80;;;;;;;15.83;42.78;97811.25;4967226;28;20504;-69
2021/03/28 10:48:39;;;;;;;5.90;1.27;;;;;;;15.82;42.31;97819.22;4970072;28;20482;-73
2021/03/28 10:51:45;;;;;;;8.93;2.13;;;;;;;16.61;41.46;97805.25;4946355;28;20452;-74
2021/03/28 10:54:48;;;;;;;6.43;1.70;;;;;;;16.76;41.82;97806.88;4970018;28;20941;-74
2021/03/28 10:58:08;;;;;;;4.10;1.50;;;;;;;16.98;40.73;97796.59;4967782;28;20462;-72
2021/03/28 11:01:10;;;;;;;6.60;1.60;;;;;;;16.68;41.54;97790.75;4982835;28;20455;-74
2021/03/28 11:04:19;;;;;;;10.13;1.30;;;;;;;16.14;42.76;97791.75;4965953;28;20464;-73
2021/03/28 11:06:56;;;;;;;5.87;1.20;;;;;;;16.50;42.36;97786.75;4934698;28;20472;-72
2021/03/28 11:09:44;;;;;;;13.07;1.80;;;;;;;16.48;42.29;97786.00;4967237;28;20763;-71
2021/03/28 11:16:14;;;;;;;3.77;1.30;;;;;;;16.82;41.42;97770.50;4923348;28;21185;-74
2021/03/28 11:19:19;;;;;;;8.63;1.57;;;;;;;17.00;41.83;97768.41;4923832;28;20469;-72
2021/03/28 11:22:03;;;;;;;6.77;1.70;;;;;;;17.03;41.23;97760.28;4925069;28;20794;-73
2021/03/28 11:24:43;;;;;;;9.10;1.40;;;;;;;17.20;40.93;97750.28;4928061;28;20473;-73
2021/03/28 11:27:34;;;;;;;2.13;1.17;;;;;;;17.32;41.42;97761.75;4924892;28;20491;-73
2021/03/28 11:30:13;;;;;;;7.70;2.27;;;;;;;16.37;41.67;97756.94;4925777;28;20520;-73
2021/03/28 11:33:02;;;;;;;5.13;1.70;;;;;;;16.10;43.19;97763.97;4926416;28;20481;-72
2021/03/28 11:35:35;;;;;;;5.80;1.40;;;;;;;16.16;42.92;97759.19;4923512;28;20944;-72
2021/03/28 11:38:34;;;;;;;4.53;1.40;;;;;;;16.26;42.17;97743.66;4923378;28;20474;-71
2021/03/28 11:41:40;;;;;;;8.10;1.47;;;;;;;16.70;41.58;97746.81;4924400;28;20498;-73
2021/03/28 11:44:22;;;;;;;6.43;1.17;;;;;;;16.09;42.15;97752.66;4916191;28;20573;-71
2021/03/28 11:46:56;;;;;;;5.53;1.63;;;;;;;15.52;43.70;97740.63;4924799;28;20820;-71
2021/03/28 11:49:31;;;;;;;3.57;1.20;;;;;;;15.62;43.32;97741.72;4941646;28;20949;-72
2021/03/28 11:52:18;;;;;;;5.43;1.30;;;;;;;15.56;42.80;97736.03;4957927;28;20475;-72
2021/03/28 11:55:02;;;;;;;12.60;2.73;;;;;;;15.61;42.83;97739.22;4957051;28;20480;-72
2021/03/28 11:57:36;;;;;;;7.17;2.60;;;;;;;15.46;43.69;97727.88;4967244;28;20468;-71
2021/03/28 12:00:38;;;;;;;6.23;1.40;;;;;;;15.94;43.15;97732.63;4966941;28;20425;-71
2021/03/28 12:03:29;;;;;;;4.93;1.47;;;;;;;16.26;42.19;97717.41;4967090;28;20778;-73
2021/03/28 12:06:01;;;;;;;2.87;1.20;;;;;;;16.10;42.14;97712.28;4967815;28;20563;-73
2021/03/28 12:08:30;;;;;;;6.07;1.70;;;;;;;15.86;42.03;97713.06;4966883;28;20484;-73
2021/03/28 12:11:14;;;;;;;5.87;1.67;;;;;;;16.07;43.08;97706.41;4967473;28;20443;-74
2021/03/28 12:13:48;;;;;;;8.50;1.30;;;;;;;16.41;41.89;97705.88;4960757;28;20866;-75
2021/03/28 12:16:15;;;;;;;10.53;1.37;;;;;;;16.66;41.83;97709.38;4959926;28;20502;-72
2021/03/28 12:18:50;;;;;;;4.63;1.50;;;;;;;16.68;41.37;97699.59;4966099;28;21017;-74
2021/03/28 12:21:46;;;;;;;2.40;1.30;;;;;;;16.58;41.70;97703.78;4965656;28;20498;-71
2021/03/28 12:24:27;;;;;;;4.07;1.40;;;;;;;16.75;41.50;97716.63;4966242;28;20664;-72
2021/03/28 12:27:05;;;;;;;7.13;1.50;;;;;;;16.86;41.64;97705.38;4964153;28;20521;-73
2021/03/28 12:29:39;;;;;;;7.40;1.70;;;;;;;16.80;41.50;97708.44;4966189;28;20799;-71
2021/03/28 12:32:50;;;;;;;7.07;1.70;;;;;;;16.44;41.85;97716.19;4963299;28;21227;-71
2021/03/28 12:35:26;;;;;;;4.23;1.90;;;;;;;16.49;41.76;97698.31;4947809;28;20851;-71
2021/03/28 12:37:54;;;;;;;6.83;1.43;;;;;;;17.05;41.38;97704.00;4957997;28;20467;-74
2021/03/28 12:40:30;;;;;;;4.07;1.30;;;;;;;17.22;41.03;97689.66;4956846;28;20449;-72
2021/03/28 12:42:59;;;;;;;3.07;1.70;;;;;;;17.15;40.65;97689.22;4960705;28;20498;-72
2021/03/28 12:45:45;;;;;;;5.10;1.33;;;;;;;17.43;39.83;97677.63;4967647;28;20975;-74
2021/03/28 12:48:32;;;;;;;3.00;1.20;;;;;;;17.54;39.96;97671.47;4968920;28;20456;-71
2021/03/28 12:51:00;;;;;;;8.57;2.13;;;;;;;17.21;40.24;97674.78;4980648;28;20883;-73
2021/03/28 12:53:33;;;;;;;3.20;1.43;;;;;;;16.93;40.60;97669.81;4967024;28;20588;-71
2021/03/28 12:56:01;;;;;;;4.03;1.90;;;;;;;17.33;40.10;97670.34;4956776;28;20828;-71
2021/03/28 12:58:42;;;;;;;4.20;1.33;;;;;;;17.45;39.48;97671.28;4957212;28;20780;-73
2021/03/28 13:01:27;;;;;;;5.57;2.00;;;;;;;17.36;39.18;97650.03;4960724;28;20521;-71
2021/03/28 13:04:07;;;;;;;9.87;5.23;;;;;;;17.22;39.45;97656.25;4950139;28;20487;-72
2021/03/28 13:06:45;;;;;;;3.20;1.27;;;;;;;17.14;39.86;97650.72;4969748;28;20440;-73
2021/03/28 13:09:31;;;;;;;4.60;1.10;;;;;;;16.79;40.64;97654.97;4948138;28;20694;-74
2021/03/28 13:12:13;;;;;;;4.40;1.80;;;;;;;16.96;40.18;97645.91;4950064;28;20441;-73
2021/03/28 13:14:42;;;;;;;7.10;1.10;;;;;;;17.16;39.13;97654.06;4980289;28;21221;-71
2021/03/28 13:17:35;;;;;;;4.93;1.50;;;;;;;16.90;39.73;97648.97;4970347;28;20457;-74
2021/03/28 13:20:28;;;;;;;3.37;1.20;;;;;;;17.48;39.36;97650.84;4967396;28;21067;-73